Time;durP1;ratioP1;P1;durP2;ratioP2;P2;SDS_P1;SDS_P2;PMS_P1;PMS_P2;Temp;Humidity;BMP_temperature;BMP_pressure;BME280_temperature;BME280_humidity;BME280_pressure;Samples;Min_cycle;Max_cycle;Signal;HPM_P1;HPM_P2
2021/03/04 00:00:39;;;;;;;;;;;;;;;20.32;49.10;101606.84;2090151;28;1759;-72
2021/03/04 00:02:05;;;;;;;;;;;;;;;20.31;49.60;101593.78;2090670;28;1640;-73
2021/03/04 00:03:32;;;;;;;;;;;;;;;20.33;49.43;101604.84;2088472;28;1712;-73
2021/03/04 00:04:58;;;;;;;;;;;;;;;20.34;49.55;101597.97;2089214;28;917;-71
2021/03/04 00:06:24;;;;;;;;;;;;;;;20.36;49.83;101599.31;2089918;28;1720;-72
2021/03/04 00:07:49;;;;;;;;;;;;;;;20.36;49.93;101593.63;2089240;28;1618;-72
2021/03/04 00:09:16;;;;;;;;;;;;;;;20.36;49.89;101590.78;2089890;28;1745;-78
2021/03/04 00:10:41;;;;;;;;;;;;;;;20.33;49.46;101580.09;2089167;28;1768;-73
2021/03/04 00:12:08;;;;;;;;;;;;;;;20.32;49.52;101574.72;2085527;28;1727;-72
2021/03/04 00:13:35;;;;;;;;;;;;;;;20.34;49.50;101580.91;2088265;28;1560;-72
2021/03/04 00:15:00;;;;;;;;;;;;;;;20.34;49.43;101575.22;2090215;28;1708;-72
2021/03/04 00:16:41;;;;;;;;;;;;;;;20.34;49.51;101578.06;2089066;28;1720;-73
2021/03/04 00:18:08;;;;;;;;;;;;;;;20.34;49.44;101569.56;2090348;28;1014;-74
2021/03/04 00:19:34;;;;;;;;;;;;;;;20.35;49.51;101574.09;2087838;28;1681;-73
2021/03/04 00:21:00;;;;;;;;;;;;;;;20.35;49.77;101577.75;2082882;28;628;-73
2021/03/04 00:22:25;;;;;;;;;;;;;;;20.35;49.68;101572.06;2090469;28;1316;-73
2021/03/04 00:23:51;;;;;;;;;;;;;;;20.35;49.68;101577.75;2089373;28;1617;-72
2021/03/04 00:25:17;;;;;;;;;;;;;;;20.36;49.54;101573.75;2086199;28;1734;-72
2021/03/04 00:26:48;;;;;;;;;;;;;;;20.35;49.55;101574.91;2087109;28;963;-72
2021/03/04 00:28:14;;;;;;;;;;;;;;;20.35;49.42;101577.75;2090064;28;1667;-75
2021/03/04 00:29:39;;;;;;;;;;;;;;;20.37;49.52;101581.13;2088495;28;1819;-73
2021/03/04 00:31:06;;;;;;;;;;;;;;;20.36;49.57;101578.59;2088624;28;1725;-72
2021/03/04 00:32:32;;;;;;;;;;;;;;;20.35;49.48;101572.06;2083506;28;1899;-73
2021/03/04 00:33:57;;;;;;;;;;;;;;;20.36;49.44;101576.59;2084454;28;1696;-73
2021/03/04 00:35:23;;;;;;;;;;;;;;;20.36;49.56;101582.25;2086421;28;1783;-73
2021/03/04 00:36:50;;;;;;;;;;;;;;;20.36;49.43;101570.06;2087125;28;1712;-76
2021/03/04 00:38:15;;;;;;;;;;;;;;;20.36;49.56;101572.91;2087711;28;1525;-73
2021/03/04 00:39:42;;;;;;;;;;;;;;;20.38;49.72;101573.44;2089892;28;1821;-72
2021/03/04 00:41:08;;;;;;;;;;;;;;;20.38;49.57;101571.41;2089787;28;1824;-72
2021/03/04 00:42:34;;;;;;;;;;;;;;;20.38;49.62;101571.41;2084843;28;852;-80
2021/03/04 00:44:00;;;;;;;;;;;;;;;20.38;49.80;101568.56;2089253;28;1710;-76
2021/03/04 00:45:26;;;;;;;;;;;;;;;20.39;49.77;101567.38;2087882;28;1735;-73
2021/03/04 00:47:05;;;;;;;;;;;;;;;20.40;50.06;101566.25;2089855;28;1763;-72
2021/03/04 00:48:31;;;;;;;;;;;;;;;20.41;50.12;101558.56;2089061;28;1731;-72
2021/03/04 00:49:57;;;;;;;;;;;;;;;20.42;50.15;101557.38;2088463;28;1652;-73
2021/03/04 00:51:24;;;;;;;;;;;;;;;20.42;50.08;101551.69;2089570;28;1707;-74
2021/03/04 00:52:50;;;;;;;;;;;;;;;20.42;50.20;101555.34;2086831;28;1902;-72
2021/03/04 00:54:16;;;;;;;;;;;;;;;20.42;50.23;101549.66;2089779;28;1897;-74
2021/03/04 00:55:41;;;;;;;;;;;;;;;20.42;49.94;101549.66;2090073;28;1552;-73
2021/03/04 00:57:08;;;;;;;;;;;;;;;20.43;50.12;101550.53;2089699;28;1644;-72
2021/03/04 00:58:33;;;;;;;;;;;;;;;20.43;50.33;101547.69;2082511;28;570;-73
2021/03/04 01:00:00;;;;;;;;;;;;;;;20.44;50.21;101541.66;2084842;28;1691;-75
2021/03/04 01:01:25;;;;;;;;;;;;;;;20.44;50.08;101541.66;2089627;28;1885;-75
2021/03/04 01:02:52;;;;;;;;;;;;;;;20.43;50.07;101540.00;2090383;28;1702;-74
2021/03/04 01:04:18;;;;;;;;;;;;;;;20.44;50.28;101530.28;2086662;28;1741;-75
2021/03/04 01:05:44;;;;;;;;;;;;;;;20.44;50.14;101538.81;2086352;28;943;-75
2021/03/04 01:07:10;;;;;;;;;;;;;;;20.44;50.32;101530.28;2088121;28;1565;-73
2021/03/04 01:08:36;;;;;;;;;;;;;;;20.45;50.17;101534.81;2090267;28;1554;-73
2021/03/04 01:10:02;;;;;;;;;;;;;;;20.44;50.07;101530.28;2087628;28;1900;-76
2021/03/04 01:11:29;;;;;;;;;;;;;;;20.44;50.08;101530.28;2085569;28;1816;-77
2021/03/04 01:12:54;;;;;;;;;;;;;;;20.44;50.05;101530.28;2085198;28;1965;-76
2021/03/04 01:14:20;;;;;;;;;;;;;;;20.45;50.09;101529.13;2089799;28;1683;-75
2021/03/04 01:15:46;;;;;;;;;;;;;;;20.45;50.22;101528.28;2089931;28;1691;-74
2021/03/04 01:17:26;;;;;;;;;;;;;;;20.45;50.02;101525.44;2087361;28;1656;-74
2021/03/04 01:18:52;;;;;;;;;;;;;;;20.45;50.25;101522.59;2090220;28;1812;-74
2021/03/04 01:20:18;;;;;;;;;;;;;;;20.44;50.22;101516.06;2088123;28;1838;-75
2021/03/04 01:21:44;;;;;;;;;;;;;;;20.46;50.04;101510.91;2088504;28;1784;-75
2021/03/04 01:23:10;;;;;;;;;;;;;;;20.46;50.06;101516.59;2089195;28;1742;-73
2021/03/04 01:24:36;;;;;;;;;;;;;;;20.46;50.20;101519.44;2089466;28;1389;-76
2021/03/04 01:26:03;;;;;;;;;;;;;;;20.47;50.39;101517.41;2089286;28;1881;-75
2021/03/04 01:27:29;;;;;;;;;;;;;;;20.47;50.11;101514.56;2087780;28;1701;-72
2021/03/04 01:28:55;;;;;;;;;;;;;;;20.46;50.11;101518.59;2087791;28;1564;-72
2021/03/04 01:30:20;;;;;;;;;;;;;;;20.46;50.00;101516.59;2087972;28;2208;-72
2021/03/04 01:31:47;;;;;;;;;;;;;;;20.46;50.16;101522.28;2087463;28;1682;-75
2021/03/04 01:33:12;;;;;;;;;;;;;;;20.46;50.18;101516.59;2083891;28;1973;-75
2021/03/04 01:34:39;;;;;;;;;;;;;;;20.47;50.22;101521.09;2085170;28;1696;-74
2021/03/04 01:36:04;;;;;;;;;;;;;;;20.47;50.08;101518.25;2087594;28;1711;-74
2021/03/04 01:37:31;;;;;;;;;;;;;;;20.49;50.40;101505.72;2084524;28;1771;-72
2021/03/04 01:38:56;;;;;;;;;;;;;;;20.47;50.27;101512.56;2088867;28;1724;-72
2021/03/04 01:40:23;;;;;;;;;;;;;;;20.48;50.37;101504.88;2090125;28;895;-73
2021/03/04 01:41:48;;;;;;;;;;;;;;;20.48;50.35;101499.19;2087048;28;1748;-75
2021/03/04 01:43:15;;;;;;;;;;;;;;;20.49;50.39;101509.41;2089405;28;1668;-75
2021/03/04 01:44:40;;;;;;;;;;;;;;;20.49;50.38;101503.72;2087150;28;1260;-75
2021/03/04 01:46:06;;;;;;;;;;;;;;;20.51;50.40;101500.53;2088996;28;1692;-75
2021/03/04 01:47:47;;;;;;;;;;;;;;;20.49;50.15;101498.03;2085917;28;1700;-75
2021/03/04 01:49:13;;;;;;;;;;;;;;;20.47;50.34;101494.69;2089652;28;1661;-74
2021/03/04 01:50:38;;;;;;;;;;;;;;;20.49;50.23;101500.03;2090043;28;1663;-73
2021/03/04 01:52:05;;;;;;;;;;;;;;;20.50;50.35;101496.03;2085687;28;1694;-75
2021/03/04 01:53:30;;;;;;;;;;;;;;;20.50;50.35;101487.50;2088410;28;1668;-72
2021/03/04 01:54:56;;;;;;;;;;;;;;;20.50;50.24;101487.50;2088488;28;1576;-74
2021/03/04 01:56:22;;;;;;;;;;;;;;;20.49;50.51;101486.66;2087798;28;963;-74
2021/03/04 01:57:48;;;;;;;;;;;;;;;20.49;50.42;101480.16;2089023;28;1716;-75
2021/03/04 01:59:14;;;;;;;;;;;;;;;20.48;50.40;101476.44;2088848;28;1807;-75
2021/03/04 02:06:01;;;;;;;;;;;;;;;20.50;50.47;101464.75;2089678;28;1850;-74
2021/03/04 02:07:28;;;;;;;;;;;;;;;20.49;50.27;101469.59;2085060;28;1269;-74
2021/03/04 02:08:53;;;;;;;;;;;;;;;20.49;50.27;101468.78;2089856;28;1927;-74
2021/03/04 02:10:20;;;;;;;;;;;;;;;20.49;50.36;101463.94;2088764;28;2053;-74
2021/03/04 02:11:45;;;;;;;;;;;;;;;20.49;50.42;101457.41;2087971;28;1823;-74
2021/03/04 02:13:12;;;;;;;;;;;;;;;20.49;50.38;101458.25;2086076;28;1967;-74
2021/03/04 02:14:37;;;;;;;;;;;;;;;20.48;50.47;101453.72;2089187;28;1621;-74
2021/03/04 02:16:04;;;;;;;;;;;;;;;20.49;50.37;101457.41;2086202;28;1811;-74
2021/03/04 02:17:30;;;;;;;;;;;;;;;20.48;50.44;101459.38;2083036;28;974;-74
2021/03/04 02:18:57;;;;;;;;;;;;;;;20.48;50.33;101450.88;2088863;28;1775;-74
2021/03/04 02:20:22;;;;;;;;;;;;;;;20.49;50.43;101451.72;2081929;28;613;-74
2021/03/04 02:21:49;;;;;;;;;;;;;;;20.48;50.26;101450.88;2088762;28;1775;-74
2021/03/04 02:23:14;;;;;;;;;;;;;;;20.47;50.38;101455.72;2083986;28;1328;-74
2021/03/04 02:24:40;;;;;;;;;;;;;;;20.49;50.36;101458.25;2087538;28;1746;-73
2021/03/04 02:26:06;;;;;;;;;;;;;;;20.48;50.27;101462.22;2086823;28;939;-74
2021/03/04 02:27:33;;;;;;;;;;;;;;;20.47;50.19;101461.41;2086054;28;1765;-74
2021/03/04 02:28:58;;;;;;;;;;;;;;;20.47;50.22;101467.09;2087209;28;1690;-74
2021/03/04 02:30:25;;;;;;;;;;;;;;;20.48;50.33;101459.38;2085101;28;2179;-75
2021/03/04 02:31:56;;;;;;;;;;;;;;;20.48;50.14;101462.22;2089933;28;1715;-74
2021/03/04 02:33:22;;;;;;;;;;;;;;;20.49;50.16;101457.41;2087178;28;1911;-74
2021/03/04 02:34:48;;;;;;;;;;;;;;;20.48;50.21;101456.53;2087415;28;1684;-74
2021/03/04 02:36:13;;;;;;;;;;;;;;;20.50;50.43;101456.22;2086049;28;1693;-76
2021/03/04 02:37:40;;;;;;;;;;;;;;;20.50;50.57;101461.91;2088765;28;1644;-76
2021/03/04 02:39:05;;;;;;;;;;;;;;;20.51;50.51;101455.91;2087552;28;1739;-75
2021/03/04 02:40:31;;;;;;;;;;;;;;;20.51;50.50;101443.69;2088496;28;1760;-75
2021/03/04 02:41:57;;;;;;;;;;;;;;;20.52;50.41;101448.22;2084880;28;947;-75
2021/03/04 02:43:24;;;;;;;;;;;;;;;20.52;50.53;101451.06;2086399;28;1809;-75
2021/03/04 02:44:49;;;;;;;;;;;;;;;20.52;50.58;101439.69;2088421;28;1763;-79
2021/03/04 02:46:15;;;;;;;;;;;;;;;20.52;50.76;101442.53;2089138;28;1720;-79
2021/03/04 02:47:41;;;;;;;;;;;;;;;20.51;50.44;101444.53;2085091;28;1565;-79
2021/03/04 02:49:08;;;;;;;;;;;;;;;20.53;50.75;101444.19;2083495;28;1704;-79
2021/03/04 02:50:34;;;;;;;;;;;;;;;20.53;50.62;101447.88;2086590;28;1868;-78
2021/03/04 02:51:59;;;;;;;;;;;;;;;20.52;50.51;101449.03;2089295;28;1682;-78
2021/03/04 02:53:25;;;;;;;;;;;;;;;20.54;50.73;101454.41;2089506;28;1906;-78
2021/03/04 02:54:51;;;;;;;;;;;;;;;20.54;50.61;101451.56;2088207;28;1681;-79
2021/03/04 02:56:17;;;;;;;;;;;;;;;20.53;50.62;101449.88;2088125;28;1239;-79
2021/03/04 02:57:43;;;;;;;;;;;;;;;20.54;50.72;101454.41;2088073;28;1687;-80
2021/03/04 02:59:09;;;;;;;;;;;;;;;20.54;50.63;101454.41;2086749;28;1660;-79
2021/03/04 03:00:35;;;;;;;;;;;;;;;20.54;50.76;101454.41;2083487;28;1038;-79
2021/03/04 03:02:01;;;;;;;;;;;;;;;20.55;50.62;101458.94;2089605;28;1671;-79
2021/03/04 03:03:27;;;;;;;;;;;;;;;20.54;50.72;101460.09;2085068;28;1753;-79
2021/03/04 03:04:54;;;;;;;;;;;;;;;20.54;50.47;101455.25;2088721;28;1589;-79
2021/03/04 03:06:19;;;;;;;;;;;;;;;20.54;50.60;101463.78;2082395;28;1279;-79
2021/03/04 03:07:45;;;;;;;;;;;;;;;20.54;50.65;101466.63;2085569;28;1833;-78
2021/03/04 03:09:12;;;;;;;;;;;;;;;20.54;50.80;101460.94;2090841;28;1734;-78
2021/03/04 03:10:37;;;;;;;;;;;;;;;20.55;50.78;101470.31;2090239;28;1675;-78
2021/03/04 03:12:03;;;;;;;;;;;;;;;20.55;50.65;101464.63;2090814;28;1657;-78
2021/03/04 03:13:29;;;;;;;;;;;;;;;20.55;50.56;101464.63;2086477;28;1898;-78
2021/03/04 03:14:55;;;;;;;;;;;;;;;20.55;50.62;101467.47;2088906;28;1712;-78
2021/03/04 03:16:21;;;;;;;;;;;;;;;20.54;50.60;101460.94;2090644;28;1771;-79
2021/03/04 03:17:48;;;;;;;;;;;;;;;20.55;50.68;101468.31;2091276;28;1588;-80
2021/03/04 03:19:14;;;;;;;;;;;;;;;20.55;50.57;101461.78;2085278;28;1677;-79
2021/03/04 03:20:40;;;;;;;;;;;;;;;20.55;50.51;101453.25;2090707;28;1856;-79
2021/03/04 03:22:07;;;;;;;;;;;;;;;20.55;50.70;101459.78;2085115;28;1763;-75
2021/03/04 03:23:33;;;;;;;;;;;;;;;20.55;50.63;101451.25;2089801;28;1296;-75
2021/03/04 03:24:59;;;;;;;;;;;;;;;20.55;50.51;101447.56;2087139;28;1690;-75
2021/03/04 03:26:24;;;;;;;;;;;;;;;20.56;50.63;101452.06;2088392;28;1587;-75
2021/03/04 03:27:50;;;;;;;;;;;;;;;20.55;50.62;101454.09;2090445;28;1514;-75
2021/03/04 03:29:16;;;;;;;;;;;;;;;20.56;50.68;101457.75;2091127;28;1025;-75
2021/03/04 03:30:43;;;;;;;;;;;;;;;20.56;50.55;101467.13;2088541;28;1823;-75
2021/03/04 03:32:08;;;;;;;;;;;;;;;20.56;50.48;101461.44;2088957;28;1602;-75
2021/03/04 03:33:34;;;;;;;;;;;;;;;20.56;50.75;101452.91;2086529;28;1883;-75
2021/03/04 03:35:01;;;;;;;;;;;;;;;20.56;50.60;101457.75;2087793;28;1631;-75
2021/03/04 03:36:27;;;;;;;;;;;;;;;20.58;50.77;101466.78;2085895;28;1687;-75
2021/03/04 03:37:52;;;;;;;;;;;;;;;20.56;50.73;101464.28;2090334;28;1940;-75
2021/03/04 03:39:18;;;;;;;;;;;;;;;20.57;50.54;101465.13;2088240;28;1607;-75
2021/03/04 03:40:44;;;;;;;;;;;;;;;20.58;50.67;101461.09;2087172;28;1759;-75
2021/03/04 03:42:10;;;;;;;;;;;;;;;20.58;50.66;101461.94;2084951;28;1828;-75
2021/03/04 03:43:36;;;;;;;;;;;;;;;20.58;50.66;101467.63;2089869;28;1679;-75
2021/03/04 03:45:02;;;;;;;;;;;;;;;20.58;50.80;101470.47;2086431;28;1732;-75
2021/03/04 03:46:28;;;;;;;;;;;;;;;20.58;50.67;101467.63;2090423;28;1747;-76
2021/03/04 03:47:54;;;;;;;;;;;;;;;20.59;50.50;101462.78;2090527;28;1557;-76
2021/03/04 03:49:22;;;;;;;;;;;;;;;20.59;50.68;101477.00;2089940;28;1625;-76
2021/03/04 03:50:47;;;;;;;;;;;;;;;20.58;50.59;101464.78;2090102;28;1592;-76
2021/03/04 03:52:13;;;;;;;;;;;;;;;20.59;50.54;101472.16;2089601;28;1802;-76
2021/03/04 03:53:39;;;;;;;;;;;;;;;20.59;50.54;101468.47;2090902;28;1965;-76
2021/03/04 03:55:05;;;;;;;;;;;;;;;20.59;50.59;101474.13;2090486;28;1738;-76
2021/03/04 03:56:32;;;;;;;;;;;;;;;20.60;50.53;101461.63;2089429;28;1844;-76
2021/03/04 03:57:57;;;;;;;;;;;;;;;20.59;50.67;101465.63;2086268;28;986;-75
2021/03/04 03:59:23;;;;;;;;;;;;;;;20.60;50.63;101467.31;2088501;28;1710;-75
2021/03/04 04:00:49;;;;;;;;;;;;;;;20.60;50.57;101470.16;2088689;28;1633;-76
2021/03/04 04:02:15;;;;;;;;;;;;;;;20.60;50.58;101468.13;2090578;28;1670;-75
2021/03/04 04:03:41;;;;;;;;;;;;;;;20.60;50.61;101470.97;2086438;28;1693;-75
2021/03/04 04:05:08;;;;;;;;;;;;;;;20.60;50.62;101464.47;2094091;28;2035;-75
2021/03/04 04:06:33;;;;;;;;;;;;;;;20.60;50.73;101461.63;2086738;28;1712;-75
2021/03/04 04:07:59;;;;;;;;;;;;;;;20.60;50.71;101459.59;2089109;28;1026;-75
2021/03/04 04:09:26;;;;;;;;;;;;;;;20.60;50.63;101459.59;2090767;28;1251;-76
2021/03/04 04:10:51;;;;;;;;;;;;;;;20.60;50.58;101465.28;2089244;28;1692;-76
2021/03/04 04:12:17;;;;;;;;;;;;;;;20.62;50.81;101459.25;2087106;28;1764;-73
2021/03/04 04:13:43;;;;;;;;;;;;;;;20.61;50.63;101468.97;2089152;28;1910;-73
2021/03/04 04:15:09;;;;;;;;;;;;;;;20.61;50.76;101458.41;2089766;28;1680;-73
2021/03/04 04:16:35;;;;;;;;;;;;;;;20.61;50.65;101454.75;2087068;28;1744;-74
2021/03/04 04:18:02;;;;;;;;;;;;;;;20.61;50.83;101460.44;2086750;28;1589;-74
2021/03/04 04:19:44;;;;;;;;;;;;;;;20.61;50.87;101441.38;2088822;28;1811;-74
2021/03/04 04:21:09;;;;;;;;;;;;;;;20.61;50.76;101449.91;2088386;28;1714;-74
2021/03/04 04:22:35;;;;;;;;;;;;;;;20.62;50.92;101450.72;2088090;28;1824;-73
2021/03/04 04:24:01;;;;;;;;;;;;;;;20.64;50.99;101451.22;2086830;28;1025;-73
2021/03/04 04:25:28;;;;;;;;;;;;;;;20.61;50.86;101446.22;2089604;28;1759;-73
2021/03/04 04:26:53;;;;;;;;;;;;;;;20.62;51.05;101447.88;2089424;28;1784;-74
2021/03/04 04:28:19;;;;;;;;;;;;;;;20.62;51.11;101445.03;2088946;28;2043;-72
2021/03/04 04:29:45;;;;;;;;;;;;;;;20.62;51.12;101442.19;2089535;28;2058;-75
2021/03/04 04:31:11;;;;;;;;;;;;;;;20.62;51.04;101447.88;2087307;28;1735;-75
2021/03/04 04:32:37;;;;;;;;;;;;;;;20.62;50.98;101440.22;2088722;28;1742;-75
2021/03/04 04:34:04;;;;;;;;;;;;;;;20.62;50.96;101439.34;2086949;28;1724;-75
2021/03/04 04:35:29;;;;;;;;;;;;;;;20.62;50.96;101445.03;2085578;28;1812;-75
2021/03/04 04:36:55;;;;;;;;;;;;;;;20.62;50.91;101448.75;2089844;28;1701;-74
2021/03/04 04:38:21;;;;;;;;;;;;;;;20.61;51.05;101446.22;2086183;28;1032;-75
2021/03/04 04:39:47;;;;;;;;;;;;;;;20.61;50.92;101449.06;2089185;28;1765;-74
2021/03/04 04:41:13;;;;;;;;;;;;;;;20.61;51.08;101449.06;2084046;28;1807;-74
2021/03/04 04:42:39;;;;;;;;;;;;;;;20.62;50.97;101450.72;2087120;28;1544;-74
2021/03/04 04:44:05;;;;;;;;;;;;;;;20.62;50.94;101445.91;2088414;28;1824;-74
2021/03/04 04:45:31;;;;;;;;;;;;;;;20.62;51.07;101456.41;2087112;28;1711;-74
2021/03/04 04:46:57;;;;;;;;;;;;;;;20.63;51.16;101446.72;2090065;28;1645;-74
2021/03/04 04:48:24;;;;;;;;;;;;;;;20.63;51.29;101446.72;2085498;28;1682;-73
2021/03/04 04:50:09;;;;;;;;;;;;;;;20.63;51.27;101441.03;2088589;28;1725;-73
2021/03/04 04:51:34;;;;;;;;;;;;;;;20.63;51.18;101450.41;2086276;28;1899;-73
2021/03/04 04:53:01;;;;;;;;;;;;;;;20.63;51.19;101453.25;2087341;28;1977;-74
2021/03/04 04:54:26;;;;;;;;;;;;;;;20.64;51.18;101457.75;2090845;28;1723;-73
2021/03/04 04:55:52;;;;;;;;;;;;;;;20.63;51.25;101452.41;2087283;28;2133;-73
2021/03/04 04:57:18;;;;;;;;;;;;;;;20.64;51.30;101456.91;2089308;28;1708;-74
2021/03/04 04:58:44;;;;;;;;;;;;;;;20.64;51.20;101442.69;2087356;28;1754;-74
2021/03/04 05:00:10;;;;;;;;;;;;;;;20.64;51.34;101439.88;2088095;28;1789;-73
2021/03/04 05:01:36;;;;;;;;;;;;;;;20.65;51.34;101447.25;2089576;28;1570;-74
2021/03/04 05:03:02;;;;;;;;;;;;;;;20.65;51.15;101447.25;2086013;28;967;-73
2021/03/04 05:04:28;;;;;;;;;;;;;;;20.64;51.17;101437.84;2085148;28;1695;-73
2021/03/04 05:05:54;;;;;;;;;;;;;;;20.65;51.28;101439.53;2086110;28;1627;-73
2021/03/04 05:07:20;;;;;;;;;;;;;;;20.64;51.25;101443.53;2089257;28;1848;-74
2021/03/04 05:08:46;;;;;;;;;;;;;;;20.65;51.29;101450.91;2085498;28;1676;-72
2021/03/04 05:10:12;;;;;;;;;;;;;;;20.65;51.32;101452.91;2087597;28;1976;-72
2021/03/04 05:11:38;;;;;;;;;;;;;;;20.65;51.40;101445.22;2089512;28;1795;-72
2021/03/04 05:13:04;;;;;;;;;;;;;;;20.65;51.20;101445.22;2085445;28;1915;-73
2021/03/04 05:14:30;;;;;;;;;;;;;;;20.65;51.36;101433.84;2090256;28;1617;-72
2021/03/04 05:15:56;;;;;;;;;;;;;;;20.65;51.14;101431.00;2082497;28;926;-73
2021/03/04 05:17:22;;;;;;;;;;;;;;;20.66;51.29;101434.69;2090194;28;1679;-72
2021/03/04 05:18:48;;;;;;;;;;;;;;;20.65;51.29;101433.84;2086409;28;1900;-72
2021/03/04 05:20:30;;;;;;;;;;;;;;;20.65;51.14;101431.00;2088584;28;1728;-72
2021/03/04 05:21:57;;;;;;;;;;;;;;;20.66;51.31;101429.00;2089066;28;1878;-72
2021/03/04 05:23:22;;;;;;;;;;;;;;;20.65;51.33;101428.16;2087705;28;1323;-73
2021/03/04 05:24:48;;;;;;;;;;;;;;;20.65;51.26;101431.00;2089384;28;1629;-72
2021/03/04 05:26:14;;;;;;;;;;;;;;;20.65;51.40;101425.31;2089061;28;1702;-72
2021/03/04 05:27:40;;;;;;;;;;;;;;;20.66;51.34;101429.81;2082096;28;660;-72
2021/03/04 05:29:06;;;;;;;;;;;;;;;20.66;51.34;101429.00;2086730;28;1739;-72
2021/03/04 05:30:32;;;;;;;;;;;;;;;20.66;51.25;101426.16;2088014;28;2320;-72
2021/03/04 05:31:58;;;;;;;;;;;;;;;20.66;51.30;101424.13;2087382;28;1665;-73
2021/03/04 05:33:24;;;;;;;;;;;;;;;20.66;51.19;101417.63;2089811;28;1914;-72
2021/03/04 05:34:50;;;;;;;;;;;;;;;20.67;51.30;101424.97;2089468;28;1862;-73
2021/03/04 05:36:16;;;;;;;;;;;;;;;20.67;51.28;101416.44;2084457;28;1708;-72
2021/03/04 05:37:42;;;;;;;;;;;;;;;20.66;51.25;101417.63;2084503;28;1707;-73
2021/03/04 05:39:09;;;;;;;;;;;;;;;20.67;51.11;101416.44;2084087;28;1777;-72
2021/03/04 05:40:35;;;;;;;;;;;;;;;20.67;51.17;101420.13;2088456;28;1815;-72
2021/03/04 05:42:01;;;;;;;;;;;;;;;20.67;51.23;101419.28;2088468;28;1828;-73
2021/03/04 05:43:27;;;;;;;;;;;;;;;20.67;51.33;101416.44;2086096;28;1711;-73
2021/03/04 05:44:53;;;;;;;;;;;;;;;20.68;51.32;101420.97;2089512;28;1711;-73
2021/03/04 05:46:19;;;;;;;;;;;;;;;20.67;51.31;101414.44;2088528;28;1894;-74
2021/03/04 05:47:46;;;;;;;;;;;;;;;20.67;51.16;101407.91;2085894;28;1576;-75
2021/03/04 05:49:11;;;;;;;;;;;;;;;20.66;51.10;101404.22;2082948;28;947;-74
2021/03/04 05:50:53;;;;;;;;;;;;;;;20.66;51.29;101407.06;2087415;28;1699;-74
2021/03/04 05:52:18;;;;;;;;;;;;;;;20.67;51.07;101407.91;2088284;28;1694;-74
2021/03/04 05:53:44;;;;;;;;;;;;;;;20.67;51.08;101410.75;2081787;28;1914;-73
2021/03/04 05:55:10;;;;;;;;;;;;;;;20.67;51.15;101407.91;2089707;28;1746;-74
2021/03/04 05:56:36;;;;;;;;;;;;;;;20.68;51.11;101403.91;2090209;28;1721;-74
2021/03/04 05:58:02;;;;;;;;;;;;;;;20.67;51.17;101408.75;2087609;28;2746;-74
2021/03/04 05:59:28;;;;;;;;;;;;;;;20.68;51.04;101406.75;2089692;28;1568;-73
2021/03/04 06:00:54;;;;;;;;;;;;;;;20.67;51.13;101405.06;2088062;28;1784;-74
2021/03/04 06:02:21;;;;;;;;;;;;;;;20.67;51.08;101402.22;2090169;28;946;-73
2021/03/04 06:03:48;;;;;;;;;;;;;;;20.68;50.98;101406.75;2087669;28;966;-73
2021/03/04 06:05:13;;;;;;;;;;;;;;;20.68;50.94;101412.44;2086634;28;1675;-73
2021/03/04 06:06:39;;;;;;;;;;;;;;;20.67;51.05;101408.75;2086141;28;1648;-73
2021/03/04 06:08:05;;;;;;;;;;;;;;;20.68;51.04;101415.28;2088679;28;1586;-72
2021/03/04 06:09:31;;;;;;;;;;;;;;;20.68;51.13;101415.28;2089767;28;1879;-72
2021/03/04 06:10:57;;;;;;;;;;;;;;;20.69;50.99;101409.25;2088968;28;1815;-72
2021/03/04 06:12:23;;;;;;;;;;;;;;;20.69;51.02;101419.78;2084755;28;1673;-72
2021/03/04 06:13:49;;;;;;;;;;;;;;;20.69;50.98;101411.25;2087856;28;1918;-73
2021/03/04 06:15:15;;;;;;;;;;;;;;;20.70;51.02;101412.91;2089001;28;1663;-72
2021/03/04 06:16:41;;;;;;;;;;;;;;;20.70;51.02;101412.91;2088448;28;1594;-74
2021/03/04 06:18:07;;;;;;;;;;;;;;;20.69;51.11;101411.25;2088719;28;1906;-74
2021/03/04 06:19:34;;;;;;;;;;;;;;;20.69;51.05;101414.09;2089505;28;1562;-73
2021/03/04 06:21:14;;;;;;;;;;;;;;;20.69;51.23;101416.94;2088576;28;1712;-81
2021/03/04 06:22:40;;;;;;;;;;;;;;;20.69;51.03;101417.78;2089751;28;1166;-73
2021/03/04 06:24:06;;;;;;;;;;;;;;;20.69;51.28;101409.25;2088346;28;1859;-74
2021/03/04 06:25:32;;;;;;;;;;;;;;;20.69;51.25;101406.41;2083863;28;1767;-75
2021/03/04 06:26:58;;;;;;;;;;;;;;;20.69;51.25;101406.41;2087290;28;1927;-72
2021/03/04 06:28:24;;;;;;;;;;;;;;;20.70;51.10;101412.91;2087683;28;2043;-72
2021/03/04 06:29:50;;;;;;;;;;;;;;;20.69;51.31;101402.72;2089942;28;2391;-72
2021/03/04 06:31:16;;;;;;;;;;;;;;;20.69;51.19;101405.56;2088499;28;641;-72
2021/03/04 06:32:42;;;;;;;;;;;;;;;20.70;51.11;101410.06;2082292;28;1831;-72
2021/03/04 06:34:08;;;;;;;;;;;;;;;20.69;51.20;101409.25;2081132;28;1914;-72
2021/03/04 06:35:34;;;;;;;;;;;;;;;20.71;51.18;101413.78;2089077;28;1573;-73
2021/03/04 06:37:00;;;;;;;;;;;;;;;20.70;51.18;101410.06;2086947;28;2090;-74
2021/03/04 06:38:27;;;;;;;;;;;;;;;20.69;51.09;101414.94;2086754;28;1736;-73
2021/03/04 06:39:53;;;;;;;;;;;;;;;20.68;51.19;101421.81;2089145;28;1669;-78
2021/03/04 06:41:19;;;;;;;;;;;;;;;20.68;51.01;101420.97;2092963;28;1992;-75
2021/03/04 06:42:45;;;;;;;;;;;;;;;20.68;51.07;101412.44;2094533;28;3011;-77
2021/03/04 06:44:11;;;;;;;;;;;;;;;20.69;51.05;101414.09;2088192;28;1734;-79
2021/03/04 06:45:37;;;;;;;;;;;;;;;20.66;50.89;101418.44;2087289;28;1054;-78
2021/03/04 06:47:04;;;;;;;;;;;;;;;20.66;51.05;101417.63;2089187;28;1760;-79
2021/03/04 06:48:30;;;;;;;;;;;;;;;20.65;50.92;101419.63;2090112;28;1759;-82
2021/03/04 06:49:56;;;;;;;;;;;;;;;20.66;50.81;101426.16;2089121;28;853;-81
2021/03/04 06:51:39;;;;;;;;;;;;;;;20.66;50.68;101426.16;2089862;28;2396;-87
2021/03/04 06:53:05;;;;;;;;;;;;;;;20.66;50.66;101423.31;2088023;28;1782;-79
2021/03/04 06:54:31;;;;;;;;;;;;;;;20.66;50.68;101420.47;2083871;28;1803;-78
2021/03/04 06:56:00;;;;;;;;;;;;;;;20.66;50.46;101426.97;2085045;28;1694;-84
2021/03/04 06:57:27;;;;;;;;;;;;;;;20.66;50.47;101423.31;2082822;28;1704;-82
2021/03/04 06:58:53;;;;;;;;;;;;;;;20.65;50.38;101422.47;2087673;28;1896;-84
2021/03/04 07:00:19;;;;;;;;;;;;;;;20.65;50.44;101422.47;2089436;28;1909;-76
2021/03/04 07:01:45;;;;;;;;;;;;;;;20.64;50.47;101420.78;2088449;28;1254;-76
2021/03/04 07:03:11;;;;;;;;;;;;;;;20.62;50.32;101416.59;2089821;28;1546;-81
2021/03/04 07:04:37;;;;;;;;;;;;;;;20.60;50.24;101416.13;2086708;28;1796;-78
2021/03/04 07:06:03;;;;;;;;;;;;;;;20.59;50.22;101417.28;2086661;28;1821;-76
2021/03/04 07:07:29;;;;;;;;;;;;;;;20.59;50.13;101421.00;2084825;28;1054;-77
2021/03/04 07:08:55;;;;;;;;;;;;;;;20.59;50.12;101423.84;2087352;28;1759;-76
2021/03/04 07:10:21;;;;;;;;;;;;;;;20.59;50.01;101425.81;2083079;28;1956;-76
2021/03/04 07:11:47;;;;;;;;;;;;;;;20.57;49.88;101413.97;2085761;28;1782;-76
2021/03/04 07:13:13;;;;;;;;;;;;;;;20.59;49.99;101420.13;2086357;28;1280;-76
2021/03/04 07:14:39;;;;;;;;;;;;;;;20.58;49.79;101416.47;2083065;28;1674;-76
2021/03/04 07:16:05;;;;;;;;;;;;;;;20.58;49.96;101416.47;2086957;28;1849;-76
2021/03/04 07:17:31;;;;;;;;;;;;;;;;;;2087572;28;1645;-76
2021/03/04 07:18:57;;;;;;;;;;;;;;;20.57;49.78;101419.66;2088073;28;2666;-76
2021/03/04 07:20:23;;;;;;;;;;;;;;;20.57;49.74;101428.19;2087371;28;1612;-75
2021/03/04 07:22:03;;;;;;;;;;;;;;;20.57;49.67;101425.34;2085952;28;890;-77
2021/03/04 07:23:29;;;;;;;;;;;;;;;20.56;49.46;101417.97;2085694;28;1343;-76
2021/03/04 07:24:55;;;;;;;;;;;;;;;20.56;49.54;101415.94;2084437;28;1766;-77
2021/03/04 07:26:21;;;;;;;;;;;;;;;20.56;49.46;101418.78;2087932;28;1904;-78
2021/03/04 07:27:47;;;;;;;;;;;;;;;20.55;49.48;101411.44;2087514;28;1784;-71
2021/03/04 07:29:14;;;;;;;;;;;;;;;20.55;49.40;101411.44;2087450;28;1893;-73
2021/03/04 07:30:39;;;;;;;;;;;;;;;20.55;49.29;101417.13;2088744;28;2352;-75
2021/03/04 07:32:06;;;;;;;;;;;;;;;20.55;49.31;101416.28;2086269;28;1939;-74
2021/03/04 07:33:32;;;;;;;;;;;;;;;20.55;49.25;101411.44;2089563;28;1906;-75
2021/03/04 07:34:58;;;;;;;;;;;;;;;20.55;49.33;101411.44;2089033;28;1906;-74
2021/03/04 07:36:24;;;;;;;;;;;;;;;20.55;49.36;101422.81;2085460;28;1791;-74